Main page
METAR-TAF:

METAR-TAF

Airports :

Derry, Northern Ireland

City of Derry Airport

latitude: 55-03N, longitude: 007-09W, elevation: 9 m

Current weather observation

The report was made 4 hours and 22 minutes ago, at 19:50 UTC
Wind 9 kt from the South/Southwest, varying between South and Southwest
Temperature 16°C
Humidity 82%
Pressure 1014 hPa
Visibility 10 km or more
Broken clouds at a height of 2500 ft

METAR: EGAE 191950Z 20009KT 170V230 9999 BKN025 16/13 Q1014

Time: 01:12 (00:12 UTC)

Forecast

The report was made 7 hours and 15 minutes ago, at 16:57 UTC
Forecast valid from 19 at 18 UTC to 19 at 20 UTC
Wind 8 kt from the South
Visibility 10 km or more
Broken clouds at a height of 2000 ft
Probability 40% :
Temporary
from 19 at 18 UTC to 19 at 20 UTC
Visibility: 8000 m
Broken clouds at a height of 1400 ft
rain

TAF: EGAE 191657Z 1918/1920 18008KT 9999 BKN020 PROB40 TEMPO 1918/1920 8000 RA BKN014

Weather observations and forecasts of more than 4000 airports (METAR and TAF reports).

The available stations are represented by yellow and red dots on the map.

Hover mouse over dot to see the name of the station.

Then click to see weather observations and forecasts.

To change the map : click on the green buttons with a black cross to zoom in, on the green button with a dash to zoom out, or on the green arrows for adjacent maps.


METAR-TAF: